Time;durP1;ratioP1;P1;durP2;ratioP2;P2;SDS_P1;SDS_P2;PMS_P1;PMS_P2;Temp;Humidity;BMP_temperature;BMP_pressure;BME280_temperature;BME280_humidity;BME280_pressure;Samples;Min_cycle;Max_cycle;Signal;HPM_P1;HPM_P2
2023/06/02 00:01:14;;;;;;;9.00;4.20;;;;;;;13.67;69.40;100145.92;104159;275;39073;-72
2023/06/02 00:03:49;;;;;;;9.10;5.00;;;;;;;13.63;69.59;100146.13;104005;275;39661;-72
2023/06/02 00:06:26;;;;;;;11.00;4.70;;;;;;;13.60;69.53;100147.21;104160;275;38484;-71
2023/06/02 00:09:03;;;;;;;;;;;;;;;13.58;69.38;100149.23;104112;275;39417;-72
2023/06/02 00:11:39;;;;;;;9.40;5.00;;;;;;;13.49;69.85;100148.66;104161;275;39451;-71
2023/06/02 00:14:18;;;;;;;10.80;4.80;;;;;;;13.43;69.74;100150.90;104142;275;38361;-72
2023/06/02 00:16:55;;;;;;;9.70;4.80;;;;;;;13.38;69.95;100149.60;104205;275;38331;-71
2023/06/02 00:19:30;;;;;;;11.10;5.20;;;;;;;13.35;69.97;100146.76;104199;275;38258;-72
2023/06/02 00:22:06;;;;;;;9.50;5.00;;;;;;;13.34;70.07;100150.48;104169;275;39389;-73
2023/06/02 00:24:44;;;;;;;10.40;4.70;;;;;;;13.32;70.12;100149.92;104158;275;38769;-73
2023/06/02 00:27:26;;;;;;;11.90;5.30;;;;;;;13.28;70.37;100149.05;104086;277;39506;-72
2023/06/02 00:30:01;;;;;;;13.10;5.40;;;;;;;13.23;70.57;100147.21;104162;275;38729;-72
2023/06/02 00:32:39;;;;;;;9.70;4.80;;;;;;;13.21;70.52;100151.02;104164;275;38499;-72
2023/06/02 00:35:15;;;;;;;10.20;4.70;;;;;;;13.18;70.62;100154.45;104176;267;38258;-71
2023/06/02 00:37:54;;;;;;;10.20;4.40;;;;;;;13.18;70.60;100152.37;104074;276;39471;-72
2023/06/02 00:40:29;;;;;;;;;;;;;;;13.20;70.73;100155.93;104071;276;38278;-73
2023/06/02 00:43:03;;;;;;;9.40;4.90;;;;;;;13.16;70.94;100155.29;103908;276;175035;-72
2023/06/02 00:45:42;;;;;;;16.00;6.10;;;;;;;13.18;70.95;100158.52;104033;276;38407;-72
2023/06/02 00:48:16;;;;;;;7.40;4.30;;;;;;;13.18;70.91;100158.33;104022;276;38633;-72
2023/06/02 00:50:54;;;;;;;9.40;4.90;;;;;;;13.16;70.80;100158.96;104045;276;39068;-71
2023/06/02 00:53:30;;;;;;;8.80;4.40;;;;;;;13.13;70.73;100155.27;104044;276;38743;-72
2023/06/02 00:56:06;;;;;;;11.50;5.50;;;;;;;13.10;70.90;100155.05;104011;276;38259;-72
2023/06/02 00:58:43;;;;;;;12.10;5.60;;;;;;;13.09;70.85;100154.92;104015;276;38215;-72
2023/06/02 01:01:18;;;;;;;12.90;4.80;;;;;;;13.08;71.03;100152.70;104041;276;38266;-72
2023/06/02 01:03:53;;;;;;;9.90;5.40;;;;;;;13.05;70.98;100153.20;104021;276;38489;-73
2023/06/02 01:06:36;;;;;;;11.60;5.00;;;;;;;13.02;71.03;100150.73;104035;276;38288;-70
2023/06/02 01:09:17;;;;;;;11.90;6.00;;;;;;;12.98;71.13;100153.77;103861;276;39038;-72
2023/06/02 01:11:56;;;;;;;11.30;4.90;;;;;;;12.93;71.01;100152.95;104099;276;38246;-73
2023/06/02 01:14:35;;;;;;;10.80;5.10;;;;;;;12.91;71.26;100150.61;104139;276;39403;-72
2023/06/02 01:17:13;;;;;;;10.40;5.10;;;;;;;12.88;71.29;100150.73;104030;276;39905;-71
2023/06/02 01:19:49;;;;;;;9.00;5.20;;;;;;;12.87;71.47;100153.59;104035;276;39793;-72
2023/06/02 01:22:27;;;;;;;10.60;4.90;;;;;;;12.89;71.52;100155.09;104036;276;38254;-72
2023/06/02 01:25:05;;;;;;;12.40;5.40;;;;;;;12.90;71.43;100153.28;104035;276;38253;-72
2023/06/02 01:27:41;;;;;;;12.70;5.30;;;;;;;12.90;71.66;100156.80;104027;276;38321;-73
2023/06/02 01:30:16;;;;;;;12.10;5.10;;;;;;;12.88;71.68;100154.41;104012;276;38391;-70
2023/06/02 01:33:02;;;;;;;11.30;4.90;;;;;;;12.86;71.85;100153.15;104054;276;38666;-73
2023/06/02 01:35:48;;;;;;;9.70;5.70;;;;;;;12.83;71.87;100152.23;103372;276;915499;-72
2023/06/02 01:38:26;;;;;;;10.20;5.30;;;;;;;12.78;71.89;100156.01;104028;276;38911;-72
2023/06/02 01:41:04;;;;;;;16.00;5.80;;;;;;;12.73;71.86;100154.33;104056;276;38373;-72
2023/06/02 01:43:38;;;;;;;10.70;5.50;;;;;;;12.69;71.99;100156.27;104016;276;38480;-71
2023/06/02 01:46:13;;;;;;;11.10;5.40;;;;;;;12.66;72.01;100157.14;104025;276;38266;-71
2023/06/02 01:48:48;;;;;;;8.00;5.40;;;;;;;12.61;72.08;100155.46;104020;276;38442;-71
2023/06/02 01:51:24;;;;;;;11.00;5.40;;;;;;;12.54;72.17;100149.00;104054;276;38461;-70
2023/06/02 01:54:04;;;;;;;8.10;5.00;;;;;;;12.49;71.88;100149.73;104017;276;39460;-72
2023/06/02 01:56:38;;;;;;;14.80;5.80;;;;;;;12.46;72.27;100147.63;104102;276;38240;-72
2023/06/02 01:59:16;;;;;;;12.00;5.60;;;;;;;12.43;72.55;100147.60;104058;275;39087;-72
2023/06/02 02:01:50;;;;;;;14.40;5.70;;;;;;;12.43;72.73;100149.92;104054;264;40017;-73
2023/06/02 02:04:24;;;;;;;12.10;5.60;;;;;;;12.45;73.06;100150.47;104038;276;39643;-70
2023/06/02 02:07:01;;;;;;;10.50;4.80;;;;;;;12.48;73.15;100154.52;104080;276;38471;-71
2023/06/02 02:09:36;;;;;;;10.90;4.90;;;;;;;12.51;73.18;100149.63;103888;276;38714;-72
2023/06/02 02:12:11;;;;;;;13.00;5.70;;;;;;;12.55;73.36;100152.73;104015;276;38408;-72
2023/06/02 02:14:50;;;;;;;9.40;5.00;;;;;;;12.59;73.30;100151.16;104026;276;38500;-72
2023/06/02 02:17:25;;;;;;;10.80;5.60;;;;;;;12.59;73.11;100150.27;104044;276;38306;-72
2023/06/02 02:20:08;;;;;;;12.40;5.70;;;;;;;12.54;72.93;100152.48;104027;276;39045;-71
2023/06/02 02:22:42;;;;;;;9.60;5.20;;;;;;;12.48;72.94;100149.80;104025;276;38371;-73
2023/06/02 02:25:17;;;;;;;10.70;5.00;;;;;;;12.45;73.03;100147.01;104054;276;38848;-72
2023/06/02 02:27:53;;;;;;;11.00;5.40;;;;;;;12.41;72.84;100144.89;104042;276;39402;-72
2023/06/02 02:30:33;;;;;;;9.40;5.30;;;;;;;12.34;72.82;100142.77;104018;276;39484;-72
2023/06/02 02:33:12;;;;;;;12.90;6.00;;;;;;;12.26;73.16;100139.50;104027;276;39823;-73
2023/06/02 02:35:51;;;;;;;12.60;5.60;;;;;;;12.20;73.30;100141.91;104054;276;38786;-72
2023/06/02 02:38:29;;;;;;;8.80;5.40;;;;;;;12.15;73.38;100142.48;104084;264;38382;-72
2023/06/02 02:41:04;;;;;;;8.80;5.10;;;;;;;12.12;73.44;100149.24;104060;276;38412;-73
2023/06/02 02:43:41;;;;;;;10.70;5.30;;;;;;;12.10;73.33;100148.13;104050;276;38477;-72
2023/06/02 02:46:16;;;;;;;9.30;5.50;;;;;;;12.05;73.23;100154.71;104035;276;38817;-72
2023/06/02 02:48:55;;;;;;;10.00;5.80;;;;;;;11.97;73.30;100153.66;103876;276;39407;-71
2023/06/02 02:51:31;;;;;;;11.30;5.60;;;;;;;11.95;73.74;100153.60;104046;276;38462;-70
2023/06/02 02:54:09;;;;;;;11.00;5.80;;;;;;;11.90;73.82;100154.14;104087;276;38629;-71
2023/06/02 02:56:45;;;;;;;12.20;5.60;;;;;;;11.89;73.94;100154.73;104030;276;39232;-72
2023/06/02 02:59:20;;;;;;;9.80;5.90;;;;;;;11.87;73.88;100151.34;104011;276;39537;-72
2023/06/02 03:01:54;;;;;;;8.30;5.20;;;;;;;11.82;73.85;100152.92;104057;276;40325;-72
2023/06/02 03:04:32;;;;;;;12.80;5.80;;;;;;;11.81;73.86;100153.16;104024;276;38731;-72
2023/06/02 03:07:08;;;;;;;11.30;6.00;;;;;;;11.80;74.23;100152.69;104031;276;38271;-72
2023/06/02 03:09:42;;;;;;;12.20;6.10;;;;;;;11.80;74.58;100153.05;104074;276;39554;-70
2023/06/02 03:12:23;;;;;;;9.10;5.70;;;;;;;11.81;74.74;100151.41;104073;276;39911;-72
2023/06/02 03:15:02;;;;;;;12.80;5.80;;;;;;;11.84;74.98;100150.58;104060;276;39527;-71
2023/06/02 03:17:37;;;;;;;9.30;6.00;;;;;;;11.90;75.19;100149.83;104045;276;39394;-72
2023/06/02 03:20:14;;;;;;;11.70;6.80;;;;;;;11.95;75.43;100151.50;103603;276;672934;-70
2023/06/02 03:22:51;;;;;;;10.10;5.90;;;;;;;11.99;75.42;100151.28;104013;276;38352;-72
2023/06/02 03:25:25;;;;;;;8.20;5.30;;;;;;;12.06;75.42;100155.50;104080;276;38541;-72
2023/06/02 03:28:00;;;;;;;14.20;6.70;;;;;;;12.15;75.47;100154.19;104108;276;39651;-70
2023/06/02 03:30:35;;;;;;;13.60;6.40;;;;;;;12.24;75.31;100159.35;104086;276;38301;-73
2023/06/02 03:33:13;;;;;;;12.80;6.80;;;;;;;12.30;75.20;100163.42;104038;276;38224;-72
2023/06/02 03:35:49;;;;;;;11.70;6.30;;;;;;;12.34;75.18;100162.21;104051;276;39703;-70
2023/06/02 03:38:28;;;;;;;10.30;5.70;;;;;;;12.38;75.22;100168.12;104074;276;38761;-71
2023/06/02 03:41:02;;;;;;;9.60;6.00;;;;;;;12.44;75.20;100170.99;104050;276;39763;-72
2023/06/02 03:43:40;;;;;;;12.50;6.90;;;;;;;12.53;75.25;100172.29;104059;276;38215;-73
2023/06/02 03:46:18;;;;;;;11.00;6.20;;;;;;;12.66;75.25;100168.84;104077;276;39404;-71
2023/06/02 03:48:54;;;;;;;14.70;7.20;;;;;;;12.78;75.28;100166.17;104031;276;38754;-73
2023/06/02 03:51:30;;;;;;;12.10;6.60;;;;;;;12.85;75.03;100170.52;104083;276;39515;-72
2023/06/02 03:54:04;;;;;;;10.90;6.20;;;;;;;12.89;75.01;100170.65;104069;276;39195;-72
2023/06/02 03:56:42;;;;;;;10.50;6.60;;;;;;;12.95;74.65;100171.45;104057;276;38444;-71
2023/06/02 03:59:16;;;;;;;15.30;6.90;;;;;;;13.01;74.54;100175.48;104070;276;39559;-73
2023/06/02 04:01:50;;;;;;;14.10;7.10;;;;;;;13.07;74.52;100180.46;103916;276;39117;-73
2023/06/02 04:04:25;;;;;;;11.30;7.60;;;;;;;13.13;74.32;100180.64;104027;276;39420;-73
2023/06/02 04:07:04;;;;;;;12.20;7.70;;;;;;;13.18;74.22;100180.56;104033;276;38448;-70
2023/06/02 04:09:40;;;;;;;13.00;6.80;;;;;;;13.23;74.22;100182.44;103925;276;175082;-72
2023/06/02 04:12:16;;;;;;;13.20;7.00;;;;;;;13.28;74.11;100182.56;104023;276;38357;-70
2023/06/02 04:14:52;;;;;;;14.30;7.70;;;;;;;13.33;73.87;100183.34;104034;276;38695;-72
2023/06/02 04:17:29;;;;;;;11.10;6.80;;;;;;;13.33;73.79;100183.81;104060;276;38249;-73
2023/06/02 04:20:08;;;;;;;12.80;7.40;;;;;;;13.40;73.81;100189.09;104042;276;39302;-71
2023/06/02 04:22:42;;;;;;;16.00;7.40;;;;;;;13.44;73.72;100191.16;104045;276;39624;-73
2023/06/02 04:25:16;;;;;;;12.00;7.00;;;;;;;13.51;73.58;100191.31;104018;276;38776;-71
2023/06/02 04:27:53;;;;;;;10.70;6.70;;;;;;;13.59;73.56;100185.96;103899;276;175016;-70
2023/06/02 04:30:38;;;;;;;13.70;7.20;;;;;;;13.66;73.18;100189.11;104032;276;38582;-72
2023/06/02 04:33:13;;;;;;;13.20;7.70;;;;;;;13.73;73.00;100188.73;103918;276;38291;-73
2023/06/02 04:35:53;;;;;;;11.20;7.00;;;;;;;13.76;72.94;100189.46;103925;276;39577;-71
2023/06/02 04:38:31;;;;;;;14.40;6.90;;;;;;;13.80;72.51;100191.89;104025;276;38754;-72
2023/06/02 04:41:13;;;;;;;9.40;6.40;;;;;;;13.85;72.56;100195.24;104064;276;38451;-72
2023/06/02 04:43:51;;;;;;;12.50;6.80;;;;;;;13.93;72.39;100197.83;104022;276;39317;-73
2023/06/02 04:46:28;;;;;;;11.10;7.00;;;;;;;13.99;72.22;100193.45;104089;276;38726;-72
2023/06/02 04:49:07;;;;;;;11.80;7.50;;;;;;;14.03;72.12;100194.78;104042;274;38755;-71
2023/06/02 04:51:42;;;;;;;17.30;7.30;;;;;;;14.07;71.98;100196.02;104042;276;38804;-73
2023/06/02 04:54:16;;;;;;;10.90;6.90;;;;;;;14.10;71.92;100194.80;103927;276;175042;-71
2023/06/02 04:56:54;;;;;;;9.90;6.60;;;;;;;14.15;71.77;100194.16;104015;276;38780;-72
2023/06/02 04:59:33;;;;;;;14.70;6.70;;;;;;;14.22;71.55;100194.45;104004;276;39443;-73
2023/06/02 05:02:12;;;;;;;11.10;6.70;;;;;;;14.25;71.40;100200.44;103836;276;39307;-72
2023/06/02 05:04:46;;;;;;;12.00;6.90;;;;;;;14.26;71.20;100203.70;104034;276;38220;-72
2023/06/02 05:07:24;;;;;;;11.30;6.20;;;;;;;14.28;71.19;100205.85;104036;276;39452;-72
2023/06/02 05:10:05;;;;;;;13.80;7.00;;;;;;;14.31;71.10;100209.22;103858;276;39299;-72
2023/06/02 05:12:42;;;;;;;11.20;6.20;;;;;;;14.31;70.95;100207.11;104029;276;38388;-72
2023/06/02 05:15:16;;;;;;;11.30;6.40;;;;;;;14.34;70.87;100205.54;104079;276;38465;-72
2023/06/02 05:17:52;;;;;;;11.00;6.40;;;;;;;14.37;70.87;100207.13;103860;277;40171;-71
2023/06/02 05:20:27;;;;;;;13.00;7.00;;;;;;;14.43;70.78;100199.41;103915;277;38652;-72
2023/06/02 05:23:03;;;;;;;11.50;7.40;;;;;;;14.45;70.45;100198.95;104055;276;38528;-74
2023/06/02 05:25:42;;;;;;;11.80;6.40;;;;;;;14.51;70.52;100200.55;104114;276;38503;-73
2023/06/02 05:28:17;;;;;;;;;;;;;;;14.59;70.62;100202.24;104019;276;38432;-72
2023/06/02 05:30:52;;;;;;;11.60;6.70;;;;;;;14.59;70.54;100202.23;104025;276;39491;-73
2023/06/02 05:33:32;;;;;;;10.60;6.40;;;;;;;14.64;70.25;100207.04;104067;276;39934;-71
2023/06/02 05:36:10;;;;;;;10.40;6.60;;;;;;;14.72;70.29;100208.33;103872;277;39500;-70
2023/06/02 05:38:51;;;;;;;10.50;6.10;;;;;;;14.78;70.05;100208.34;104029;276;38214;-72
2023/06/02 05:41:30;;;;;;;11.30;6.70;;;;;;;14.85;69.80;100207.59;104036;276;39913;-72
2023/06/02 05:44:09;;;;;;;8.70;6.20;;;;;;;14.88;69.87;100210.55;104058;276;38937;-72
2023/06/02 05:46:45;;;;;;;9.50;6.90;;;;;;;14.93;69.28;100215.71;104057;276;39641;-72
2023/06/02 05:49:24;;;;;;;10.80;6.50;;;;;;;14.94;69.19;100221.41;104016;276;38434;-72
2023/06/02 05:51:58;;;;;;;;;;;;;;;14.94;68.99;100224.44;104034;276;38844;-72
2023/06/02 05:54:33;;;;;;;13.60;6.00;;;;;;;14.89;69.02;100232.94;104011;276;37972;-69
2023/06/02 05:57:08;;;;;;;11.30;6.40;;;;;;;14.88;68.85;100235.86;103886;277;39913;-71
2023/06/02 05:59:44;;;;;;;12.40;7.00;;;;;;;14.84;68.91;100236.58;104025;276;38521;-71
2023/06/02 06:02:21;;;;;;;13.60;6.60;;;;;;;14.84;68.86;100235.73;104014;276;39013;-72
2023/06/02 06:04:56;;;;;;;11.10;6.20;;;;;;;14.84;69.19;100236.58;104057;276;38609;-72
2023/06/02 06:07:30;;;;;;;10.20;6.20;;;;;;;14.83;69.32;100242.28;104111;276;38681;-71
2023/06/02 06:10:07;;;;;;;9.30;6.50;;;;;;;14.82;69.21;100241.13;104034;276;38348;-71
2023/06/02 06:12:44;;;;;;;10.30;6.20;;;;;;;14.78;69.12;100240.79;104058;276;39432;-72
2023/06/02 06:15:18;;;;;;;10.90;6.30;;;;;;;14.76;69.27;100240.90;104053;276;39438;-72
2023/06/02 06:17:55;;;;;;;8.90;5.90;;;;;;;14.78;69.56;100243.46;104013;276;40054;-72
2023/06/02 06:20:30;;;;;;;10.70;5.70;;;;;;;14.80;69.50;100243.34;104008;276;39021;-70
2023/06/02 06:23:06;;;;;;;10.50;5.80;;;;;;;14.80;69.15;100245.09;103816;278;39772;-72
2023/06/02 06:25:40;;;;;;;8.90;5.60;;;;;;;14.77;69.29;100249.50;104037;275;38745;-73
2023/06/02 06:28:16;;;;;;;7.00;5.80;;;;;;;14.74;69.18;100254.39;104021;276;38227;-71
2023/06/02 06:30:53;;;;;;;10.30;5.50;;;;;;;14.72;69.25;100261.03;104025;276;38279;-72
2023/06/02 06:33:30;;;;;;;9.20;5.10;;;;;;;14.66;69.22;100267.13;104032;276;38336;-72
2023/06/02 06:36:05;;;;;;;12.00;5.50;;;;;;;14.61;69.61;100266.91;104049;276;38480;-73
2023/06/02 06:38:43;;;;;;;8.60;5.70;;;;;;;14.58;70.37;100272.85;104053;276;39517;-73
2023/06/02 06:41:22;;;;;;;11.30;5.80;;;;;;;14.55;70.89;100269.88;104027;276;39052;-70
2023/06/02 06:43:57;;;;;;;10.30;5.60;;;;;;;14.55;71.05;100270.95;104034;276;38263;-72
2023/06/02 06:46:41;;;;;;;10.70;5.50;;;;;;;14.55;70.63;100272.52;104076;276;39470;-73
2023/06/02 06:49:16;;;;;;;8.20;5.10;;;;;;;14.53;70.62;100269.48;104097;276;38388;-71
2023/06/02 06:51:50;;;;;;;11.20;5.50;;;;;;;14.53;70.54;100275.25;104094;276;38355;-74
2023/06/02 06:54:25;;;;;;;8.80;4.90;;;;;;;14.56;70.89;100274.75;103865;276;39004;-73
2023/06/02 06:57:00;;;;;;;9.50;4.90;;;;;;;14.60;70.74;100279.95;103871;276;38387;-70
2023/06/02 06:59:34;;;;;;;9.70;5.30;;;;;;;14.62;70.81;100290.02;103845;276;39671;-72
2023/06/02 07:02:09;;;;;;;14.00;7.30;;;;;;;14.65;70.64;100291.03;103888;276;39107;-70
2023/06/02 07:04:46;;;;;;;11.50;6.80;;;;;;;14.75;70.73;100292.98;104052;276;38312;-72
2023/06/02 07:07:25;;;;;;;10.00;6.60;;;;;;;14.83;70.71;100293.39;104067;276;39649;-72
2023/06/02 07:10:07;;;;;;;8.30;4.70;;;;;;;14.86;70.53;100298.66;104030;276;39374;-69
2023/06/02 07:12:42;;;;;;;8.70;4.90;;;;;;;14.83;70.40;100299.20;104046;276;38465;-72
2023/06/02 07:15:17;;;;;;;7.20;4.10;;;;;;;14.76;70.48;100301.17;104072;276;39943;-73
2023/06/02 07:17:57;;;;;;;7.70;4.60;;;;;;;14.73;70.80;100306.23;104054;276;38555;-73
2023/06/02 07:20:36;;;;;;;8.40;4.40;;;;;;;14.71;70.89;100308.08;104085;276;38632;-72
2023/06/02 07:23:15;;;;;;;11.80;5.10;;;;;;;14.74;71.43;100311.98;104025;276;39426;-74
2023/06/02 07:25:50;;;;;;;;;;;;;;;14.80;71.52;100314.27;104102;276;39712;-75
2023/06/02 07:28:28;;;;;;;9.50;6.00;;;;;;;14.86;72.39;100317.43;104087;276;39929;-72
2023/06/02 07:31:08;;;;;;;14.30;6.00;;;;;;;15.02;72.39;100312.50;103938;276;174943;-73
2023/06/02 07:33:46;;;;;;;9.60;4.70;;;;;;;15.22;72.36;100314.13;104035;265;38234;-73
2023/06/02 07:36:25;;;;;;;10.90;5.40;;;;;;;15.39;71.90;100314.70;104075;276;38437;-69
2023/06/02 07:39:04;;;;;;;9.80;5.50;;;;;;;15.55;71.42;100312.42;104069;276;38246;-70
2023/06/02 07:41:39;;;;;;;13.50;5.60;;;;;;;15.72;70.68;100311.55;104063;276;39505;-71
2023/06/02 07:44:14;;;;;;;9.90;4.40;;;;;;;15.89;69.95;100312.67;104042;276;38413;-70
2023/06/02 07:46:53;;;;;;;11.90;4.40;;;;;;;16.00;69.50;100316.59;104051;276;38221;-71
2023/06/02 07:49:27;;;;;;;8.20;4.00;;;;;;;16.06;68.13;100312.32;104030;276;38500;-69
2023/06/02 07:52:01;;;;;;;24.50;5.80;;;;;;;16.12;67.93;100313.73;103963;276;38913;-71
2023/06/02 07:54:37;;;;;;;8.40;4.50;;;;;;;16.19;67.17;100313.98;104024;276;38475;-70
2023/06/02 07:57:13;;;;;;;14.40;4.80;;;;;;;16.19;66.17;100316.46;104052;276;38497;-71
2023/06/02 07:59:47;;;;;;;7.50;4.00;;;;;;;16.15;65.84;100317.55;104154;275;39658;-70
2023/06/02 08:02:21;;;;;;;5.90;3.80;;;;;;;16.09;65.61;100323.20;104170;275;38326;-70
2023/06/02 08:04:56;;;;;;;10.80;4.70;;;;;;;16.00;65.52;100330.79;104174;275;37946;-71
2023/06/02 08:07:33;;;;;;;9.70;3.90;;;;;;;15.95;65.56;100333.73;104141;275;38649;-70
2023/06/02 08:10:12;;;;;;;10.10;4.00;;;;;;;15.89;65.18;100338.33;104166;275;37922;-71
2023/06/02 08:12:48;;;;;;;6.80;3.70;;;;;;;15.82;64.96;100340.02;104136;275;38417;-70
2023/06/02 08:15:21;;;;;;;11.20;3.70;;;;;;;15.75;65.31;100343.92;104141;275;38444;-69
2023/06/02 08:17:56;;;;;;;8.40;3.40;;;;;;;15.71;65.22;100349.09;104143;275;38564;-70
2023/06/02 08:20:33;;;;;;;6.40;3.60;;;;;;;15.68;65.23;100353.29;104102;276;38718;-71
2023/06/02 08:23:08;;;;;;;8.60;3.30;;;;;;;15.64;65.26;100362.70;104106;276;39826;-71
2023/06/02 08:25:43;;;;;;;7.60;3.50;;;;;;;15.63;65.52;100364.00;104130;275;39603;-71
2023/06/02 08:28:24;;;;;;;9.30;3.90;;;;;;;15.63;65.38;100366.96;104142;275;38274;-70
2023/06/02 08:31:01;;;;;;;15.00;4.60;;;;;;;15.65;65.40;100365.96;104122;275;39464;-70
2023/06/02 08:33:40;;;;;;;8.70;4.30;;;;;;;15.76;65.88;100366.71;104136;275;39465;-70
2023/06/02 08:36:17;;;;;;;7.60;3.60;;;;;;;15.97;66.01;100369.34;104152;276;38782;-71
2023/06/02 08:38:52;;;;;;;10.30;4.00;;;;;;;16.18;65.62;100366.98;104112;263;38496;-71
2023/06/02 08:41:27;;;;;;;8.40;3.80;;;;;;;16.39;65.18;100364.52;104140;276;39688;-71
2023/06/02 08:44:02;;;;;;;7.60;3.60;;;;;;;16.58;65.16;100363.80;104023;275;174914;-70
2023/06/02 08:46:38;;;;;;;7.30;3.80;;;;;;;16.77;64.82;100361.02;104112;276;38254;-72
2023/06/02 08:49:15;;;;;;;8.30;3.60;;;;;;;16.90;64.32;100363.56;104167;276;39244;-71
2023/06/02 08:51:57;;;;;;;10.80;4.50;;;;;;;17.00;63.63;100362.91;104163;275;39893;-71
2023/06/02 08:54:32;;;;;;;12.00;4.00;;;;;;;16.96;62.68;100368.98;104152;275;39644;-70
2023/06/02 08:57:09;;;;;;;14.30;4.70;;;;;;;16.93;62.85;100365.52;104132;275;39383;-70
2023/06/02 08:59:43;;;;;;;13.00;3.70;;;;;;;16.88;62.39;100364.57;104181;275;38240;-70
2023/06/02 09:02:18;;;;;;;6.20;3.40;;;;;;;16.80;62.44;100369.17;104111;275;38516;-70
2023/06/02 09:04:52;;;;;;;9.70;3.60;;;;;;;16.73;62.49;100371.85;104185;275;39070;-70
2023/06/02 09:07:28;;;;;;;9.60;3.90;;;;;;;16.64;62.12;100373.10;104131;275;39739;-71
2023/06/02 09:10:03;;;;;;;9.00;3.70;;;;;;;16.52;62.26;100375.13;104135;275;39376;-69
2023/06/02 09:12:50;;;;;;;7.60;3.50;;;;;;;16.39;62.18;100378.89;104139;275;39419;-70
2023/06/02 09:15:24;;;;;;;6.80;3.70;;;;;;;16.21;62.34;100386.53;104146;276;38948;-71
2023/06/02 09:18:14;;;;;;;9.90;3.30;;;;;;;16.02;63.13;100403.86;104122;276;38359;-71
2023/06/02 09:20:52;;;;;;;7.20;3.10;;;;;;;15.72;63.52;100411.48;104114;275;38799;-71
2023/06/02 09:23:26;;;;;;;9.30;3.50;;;;;;;15.48;64.34;100419.86;104170;275;38497;-69
2023/06/02 09:26:01;;;;;;;6.30;3.10;;;;;;;15.21;64.70;100425.82;104167;276;39373;-71
2023/06/02 09:28:35;;;;;;;7.50;3.10;;;;;;;15.02;65.46;100429.14;104139;275;38497;-69
2023/06/02 09:31:13;;;;;;;10.60;3.80;;;;;;;14.86;66.00;100432.47;104104;275;39002;-71
2023/06/02 09:34:01;;;;;;;9.10;3.80;;;;;;;14.66;66.34;100428.99;104219;276;38432;-69
2023/06/02 09:36:36;;;;;;;9.90;3.30;;;;;;;14.58;67.39;100436.84;104175;275;38466;-71
2023/06/02 09:39:11;;;;;;;7.20;3.00;;;;;;;14.48;67.93;100437.70;104160;275;39389;-72
2023/06/02 09:41:55;;;;;;;9.00;3.80;;;;;;;14.39;68.38;100444.12;104178;276;39959;-70
2023/06/02 09:44:34;;;;;;;8.60;3.90;;;;;;;14.30;69.16;100449.00;104182;275;38992;-72
2023/06/02 09:47:22;;;;;;;8.40;3.80;;;;;;;14.22;69.81;100450.64;104137;275;39468;-73
2023/06/02 09:49:57;;;;;;;8.40;3.20;;;;;;;14.13;70.13;100451.60;104140;275;40188;-73
2023/06/02 09:52:35;;;;;;;7.70;3.30;;;;;;;14.12;70.40;100455.36;104158;275;39287;-72
2023/06/02 09:55:11;;;;;;;9.80;4.10;;;;;;;14.16;70.95;100454.92;104173;275;38437;-72
2023/06/02 09:57:49;;;;;;;8.80;3.30;;;;;;;14.22;71.16;100453.76;104038;275;38621;-71
2023/06/02 10:00:29;;;;;;;8.60;3.30;;;;;;;14.24;71.18;100455.92;104115;276;38060;-71
2023/06/02 10:03:02;;;;;;;12.00;3.30;;;;;;;14.30;71.17;100452.14;104129;275;39419;-72
2023/06/02 10:05:36;;;;;;;7.70;3.50;;;;;;;14.44;71.04;100455.98;104121;275;38276;-73
2023/06/02 10:08:24;;;;;;;6.40;2.80;;;;;;;14.60;70.57;100453.36;104105;275;38148;-72
2023/06/02 10:11:06;;;;;;;8.70;3.60;;;;;;;14.79;70.16;100456.25;104118;275;39608;-73
2023/06/02 10:14:08;;;;;;;8.60;3.40;;;;;;;14.93;69.19;100457.39;104112;275;39106;-71
2023/06/02 10:16:57;;;;;;;8.20;3.70;;;;;;;15.08;68.49;100459.58;104125;275;39651;-71
2023/06/02 10:19:44;;;;;;;;;;;;;;;15.17;67.56;100458.34;104205;275;38441;-73
2023/06/02 10:22:42;;;;;;;8.20;3.10;;;;;;;15.16;66.86;100461.89;104128;275;39425;-73
2023/06/02 10:25:23;;;;;;;3.90;2.70;;;;;;;15.22;66.17;100463.52;104040;275;174946;-72
2023/06/02 10:28:01;;;;;;;5.20;2.50;;;;;;;15.27;65.07;100467.46;104169;275;39972;-71
2023/06/02 10:30:35;;;;;;;3.70;2.10;;;;;;;15.21;64.01;100474.29;104198;275;39455;-72
2023/06/02 10:33:15;;;;;;;2.90;2.10;;;;;;;15.15;63.28;100478.85;104204;275;38242;-72
2023/06/02 10:36:05;;;;;;;4.00;1.40;;;;;;;15.10;62.75;100485.27;104190;275;38335;-72
2023/06/02 10:38:39;;;;;;;8.10;2.00;;;;;;;15.12;62.91;100485.72;104176;275;38335;-71
2023/06/02 10:41:14;;;;;;;4.20;2.30;;;;;;;15.15;62.36;100488.20;104178;275;38361;-72
2023/06/02 10:44:22;;;;;;;5.60;1.90;;;;;;;15.16;62.57;100497.06;104029;276;38865;-73
2023/06/02 10:47:38;;;;;;;3.10;1.60;;;;;;;15.15;62.32;100494.65;104038;276;38315;-71
2023/06/02 10:50:17;;;;;;;3.10;1.80;;;;;;;15.22;62.78;100499.40;104179;275;38697;-70
2023/06/02 10:53:12;;;;;;;3.90;2.00;;;;;;;15.28;61.88;100498.55;104167;275;39553;-70
2023/06/02 10:55:46;;;;;;;5.10;1.80;;;;;;;15.23;61.01;100503.17;104140;275;38266;-72
2023/06/02 10:58:22;;;;;;;2.40;1.80;;;;;;;15.19;61.00;100504.98;104133;275;39133;-72
2023/06/02 11:00:56;;;;;;;4.70;2.00;;;;;;;15.23;60.82;100506.02;104112;275;38259;-72
2023/06/02 11:03:42;;;;;;;4.90;2.10;;;;;;;15.22;59.86;100505.88;104035;276;188202;-72
2023/06/02 11:06:24;;;;;;;6.40;2.00;;;;;;;15.20;59.79;100505.29;104078;275;174952;-72
2023/06/02 11:09:01;;;;;;;4.40;1.50;;;;;;;15.24;59.87;100506.98;104191;276;39386;-72
2023/06/02 11:12:02;;;;;;;2.50;1.70;;;;;;;15.31;59.01;100514.70;104130;276;39930;-71
2023/06/02 11:15:01;;;;;;;4.20;1.70;;;;;;;15.30;58.38;100516.89;104180;275;38098;-72
2023/06/02 11:17:43;;;;;;;5.20;1.90;;;;;;;15.29;58.30;100519.93;104159;275;38450;-72
2023/06/02 11:20:20;;;;;;;5.50;1.50;;;;;;;15.32;58.61;100523.09;103765;275;666221;-73
2023/06/02 11:22:55;;;;;;;3.90;1.70;;;;;;;15.34;58.46;100523.69;103997;266;38247;-72
2023/06/02 11:25:37;;;;;;;4.10;1.90;;;;;;;15.32;57.31;100532.95;104165;275;38345;-71
2023/06/02 11:28:21;;;;;;;4.70;2.30;;;;;;;15.30;57.76;100539.54;104183;275;38621;-71
2023/06/02 11:31:11;;;;;;;4.90;2.00;;;;;;;15.32;57.68;100548.21;104199;275;38293;-73
2023/06/02 11:33:48;;;;;;;5.00;2.00;;;;;;;15.27;56.48;100552.52;104153;276;38744;-70
2023/06/02 11:36:38;;;;;;;5.60;1.80;;;;;;;15.22;56.89;100561.41;103513;275;899470;-72
2023/06/02 11:39:12;;;;;;;;;;;;;;;15.17;56.32;100563.44;104162;275;38231;-72
2023/06/02 11:42:09;;;;;;;3.30;1.80;;;;;;;15.05;56.28;100565.69;104172;275;38548;-72
2023/06/02 11:44:53;;;;;;;2.90;1.50;;;;;;;14.94;56.68;100574.67;104178;276;40187;-72
2023/06/02 11:47:27;;;;;;;2.70;1.70;;;;;;;14.88;55.85;100581.36;104143;275;38516;-69
2023/06/02 11:50:02;;;;;;;2.70;1.40;;;;;;;14.81;55.63;100580.64;104166;275;38231;-74
2023/06/02 11:52:45;;;;;;;5.90;1.70;;;;;;;14.75;55.90;100586.44;104010;275;38438;-73
2023/06/02 11:55:23;;;;;;;5.30;1.70;;;;;;;14.68;55.39;100589.18;104083;275;40518;-72
2023/06/02 11:58:16;;;;;;;3.20;1.60;;;;;;;14.60;55.70;100595.05;104017;275;40293;-71
2023/06/02 12:01:08;;;;;;;5.70;1.70;;;;;;;14.54;56.05;100598.53;104149;275;38491;-73
2023/06/02 12:04:00;;;;;;;4.40;2.10;;;;;;;14.47;56.23;100599.41;104156;275;39637;-74
2023/06/02 12:06:39;;;;;;;4.40;3.10;;;;;;;14.36;56.24;100605.71;104168;275;39760;-73
2023/06/02 12:09:17;;;;;;;5.70;2.50;;;;;;;14.32;56.54;100612.80;104035;275;38606;-72
2023/06/02 12:11:55;;;;;;;3.00;2.00;;;;;;;14.27;56.45;100615.64;104163;276;38809;-72